Latest Coastal Weather Observations for Tasman Island

IDT60701

Issued at 5:32 am EST Monday 6 July 2015 (issued every 10 minutes, with the page automatically refreshed every 10 minutes)

About coastal observations | Map of coastal stations | Coastal observations for TAS | Marine services | Other Formats
Station Details ID: 094155 Name: TASMAN ISLAND Lat: -43.24 Lon: 148.00 Height: 240.0 m
Data from the previous 72 hours. | See also: Recent months at Tasman Island
Date/Time
EST
Temp

°C
Wind Pressure Rain
since 9am
mm
Weather Cloud Vis
km
Sea
Height
m
Swell
Dir
 
Speed
knots
Gust
knots
hPa Trend Height
m
Period
s
Dir
06/05:30am 4.5 S 8 14 1015.3 - 1.0 - - - - - - -
06/05:00am 5.1 S 10 15 1015.1 - 1.0 - - - - - - -
06/04:30am 5.3 S 8 15 1015.0 - 1.0 - - - - - - -
06/04:00am 5.3 S 9 14 1014.8 - 1.0 - - - - - - -
06/03:30am 5.2 S 8 12 1014.9 - 1.0 - - - - - - -
06/03:00am 5.2 SSW 7 10 1015.0 - 1.0 - - - - - - -
06/02:30am 5.0 SSW 7 12 1015.0 - 1.0 - - - - - - -
06/02:00am 5.4 S 7 13 1014.9 - 1.0 - - - - - - -
06/01:30am 5.3 SSW 8 12 1014.8 - 1.0 - - - - - - -
06/01:00am 5.2 SSW 6 10 1014.8 - 1.0 - - - - - - -
06/12:30am 5.5 S 7 11 1014.9 - 1.0 - - - - - - -
06/12:00am 5.6 S 5 12 1015.0 - 1.0 - - - - - - -
 
Date/Time
EST
Temp

°C
Wind Pressure Rain
since 9am
mm
Weather Cloud Vis
km
Sea
Height
m
Swell
Dir
 
Speed
knots
Gust
knots
hPa Trend Height
m
Period
s
Dir
05/11:30pm 5.5 SSW 8 11 1015.2 - 1.0 - - - - - - -
05/11:00pm 5.7 SSW 7 10 1015.2 - 1.0 - - - - - - -
05/10:30pm 5.7 SSW 7 13 1015.0 - 1.0 - - - - - - -
05/10:00pm 5.5 S 7 13 1015.0 - 1.0 - - - - - - -
05/09:30pm 5.6 S 7 12 1015.0 - 1.0 - - - - - - -
05/09:00pm 5.6 SSW 7 12 1015.0 - 1.0 - - - - - - -
05/08:30pm 5.6 S 6 10 1015.0 - 1.0 - - - - - - -
05/08:00pm 5.6 SSW 7 12 1014.8 - 1.0 - - - - - - -
05/07:30pm 5.9 SSW 7 11 1014.7 - 1.0 - - - - - - -
05/07:00pm 5.3 S 5 13 1014.7 - 1.0 - - - - - - -
05/06:30pm 5.6 SW 5 12 1014.4 - 0.4 - - - - - - -
05/06:00pm 6.1 SSW 9 16 1014.3 - 0.2 Recent precip. - - - - - -
05/05:30pm 6.3 SSW 9 14 1014.1 - 0.0 - - - - - - -
05/05:00pm 6.0 SSW 8 12 1013.9 - 0.0 - - - - - - -
05/04:30pm 5.7 SSW 9 13 1013.8 - 0.0 - - - - - - -
05/04:00pm 6.3 SSW 10 13 1013.7 - 0.0 - - - - - - -
05/03:30pm 6.2 SSW 11 16 1013.5 - 0.0 - - - - - - -
05/03:00pm 6.5 SSW 9 17 1013.3 - 0.0 - - - - - - -
05/02:30pm 7.2 SSW 11 18 1013.4 - 0.0 - - - - - - -
05/02:00pm 7.3 SSW 11 19 1013.3 - 0.0 - - - - - - -
05/01:30pm 7.2 SSW 12 19 1013.2 - 0.0 - - - - - - -
05/01:00pm 7.5 SSW 13 22 1013.3 - 0.0 - - - - - - -
05/12:30pm 8.4 SW 11 21 1013.2 - 0.0 - - - - - - -
05/12:00pm 7.9 SW 7 18 1013.4 - 0.0 - - - - - - -
05/11:30am 7.8 SW 11 21 1013.3 - 0.0 - - - - - - -
05/11:13am 7.9 SW 15 28 1013.5 - 0.0 - - - - - - -
05/11:00am 8.5 SW 7 18 1013.7 - 0.0 - - - - - - -
05/10:30am 7.9 WSW 7 15 1013.7 - 0.0 - - - - - - -
05/10:00am 8.0 WSW 9 20 1013.6 - 0.0 - - - - - - -
05/09:30am 7.1 SW 10 26 1013.5 - 0.0 - - - - - - -
05/09:00am 7.7 WSW 10 21 1013.4 - 0.0 - - - - - - -
05/08:30am 7.3 WSW 7 18 1013.7 - 0.0 - - - - - - -
05/08:00am 7.2 WSW 6 17 1013.5 - 0.0 - - - - - - -
05/07:30am 7.4 WSW 8 18 1013.1 - 0.0 - - - - - - -
05/07:00am 7.4 W 8 20 1012.7 - 0.0 - - - - - - -
05/06:30am 7.7 NW 6 20 1012.6 - 0.0 - - - - - - -
05/06:00am 7.5 W 9 23 1012.4 - 0.0 - - - - - - -
05/05:30am 7.4 WNW 7 20 1012.3 - 0.0 - - - - - - -
05/05:00am 7.4 WNW 8 21 1012.1 - 0.0 - - - - - - -
05/04:30am 7.3 NW 5 18 1012.3 - 0.0 - - - - - - -
05/04:00am 7.3 WNW 5 13 1012.2 - 0.0 - - - - - - -
05/03:30am 7.5 W 10 22 1012.2 - 0.0 - - - - - - -
05/03:00am 7.5 W 7 18 1012.6 - 0.0 - - - - - - -
05/02:30am 7.5 WNW 8 17 1013.0 - 0.0 - - - - - - -
05/02:00am 7.5 WNW 10 19 1013.0 - 0.0 - - - - - - -
05/01:30am 7.4 WNW 9 20 1012.5 - 0.0 - - - - - - -
05/01:00am 7.5 WNW 7 19 1012.4 - 0.0 - - - - - - -
05/12:30am 7.6 WNW 5 16 1012.6 - 0.0 - - - - - - -
05/12:00am 7.6 W 6 18 1012.8 - 0.0 - - - - - - -
 
Date/Time
EST
Temp

°C
Wind Pressure Rain
since 9am
mm
Weather Cloud Vis
km
Sea
Height
m
Swell
Dir
 
Speed
knots
Gust
knots
hPa Trend Height
m
Period
s
Dir
04/11:30pm 7.5 WNW 5 14 1012.7 - 0.0 - - - - - - -
04/11:00pm 7.4 WNW 5 17 1012.6 - 0.0 - - - - - - -
04/10:30pm 7.5 W 8 19 1012.7 - 0.0 - - - - - - -
04/10:00pm 7.5 WNW 6 24 1012.7 - 0.0 - - - - - - -
04/09:30pm 7.7 SSE 5 15 1013.2 - 0.0 - - - - - - -
04/09:00pm 7.5 NNW 4 15 1013.1 - 0.0 - - - - - - -
04/08:30pm 7.6 W 5 13 1012.6 - 0.0 - - - - - - -
04/08:00pm 7.7 WNW 6 18 1012.8 - 0.0 - - - - - - -
04/07:30pm 7.8 NNW 7 18 1012.6 - 0.0 - - - - - - -
04/07:00pm 7.7 WNW 5 16 1012.4 - 0.0 - - - - - - -
04/06:30pm 8.0 WNW 6 17 1012.2 - 0.0 - - - - - - -
04/06:00pm 8.2 NW 6 14 1011.9 - 0.0 - - - - - - -
04/05:30pm 8.6 NNW 6 19 1011.8 - 0.0 - - - - - - -
04/05:00pm 8.7 NNE 6 16 1011.2 - 0.0 - - - - - - -
04/04:30pm 8.5 NNW 7 25 1010.9 - 0.0 - - - - - - -
04/04:00pm 8.9 NNE 5 15 1010.9 - 0.0 - - - - - - -
04/03:30pm 8.8 W 7 21 1010.8 - 0.0 - - - - - - -
04/03:00pm 8.5 W 10 21 1010.6 - 0.0 - - - - - - -
04/02:30pm 9.3 NE 5 16 1010.5 - 0.0 - - - - - - -
04/02:00pm 10.0 WNW 7 21 1009.9 - 0.0 - - - - - - -
04/01:30pm 9.6 NNE 6 21 1009.9 - 0.0 - - - - - - -
04/01:00pm 9.8 WSW 7 26 1010.1 - 0.0 - - - - - - -
04/12:30pm 9.7 WSW 7 22 1010.0 - 0.0 - - - - - - -
04/12:00pm 9.5 W 8 29 1010.0 - 0.0 - - - - - - -
04/11:30am 9.9 SW 6 20 1010.3 - 0.0 - - - - - - -
04/11:00am 10.5 NNW 5 18 1010.5 - 0.0 - - - - - - -
04/10:30am 10.2 WSW 13 26 1010.4 - 0.0 - - - - - - -
04/10:00am 9.5 SW 10 20 1010.3 - 0.0 - - - - - - -
04/09:30am 9.7 WSW 6 14 1010.1 - 0.0 - - - - - - -
04/09:00am 9.9 W 4 11 1010.0 - - - - - - - - -
04/08:30am 9.3 WNW 7 15 1009.6 - - - - - - - - -
04/08:00am 9.1 NW 3 11 1009.7 - - - - - - - - -
04/07:30am 9.1 W 4 10 1009.3 - - - - - - - - -
04/07:00am 9.1 NW 3 8 1008.9 - - - - - - - - -
04/06:30am 9.1 W 4 12 1008.7 - - - - - - - - -
04/06:00am 8.9 WNW 12 19 1008.4 - - Recent precip. - - - - - -
04/05:30am 9.0 WNW 14 24 1008.2 - - - - - - - - -
04/05:00am 9.4 WNW 24 35 1007.5 - - - - - - - - -
04/04:36am 9.5 NW 18 31 1007.5 - - - - - - - - -
04/04:30am 9.3 NW 17 25 1007.7 - - - - - - - - -
04/04:00am 10.0 WNW 17 29 1008.0 - - - - - - - - -
04/03:55am 10.0 WNW 17 29 1008.0 - - - - - - - - -
04/03:30am 9.6 WNW 18 26 1008.1 - - - - - - - - -
04/03:00am 8.9 NW 17 28 1008.7 - 0.0 - - - - - - -
04/02:59am 8.9 NW 17 28 1008.7 - - - - - - - - -
04/02:30am 8.6 NW 16 23 1009.1 - - - - - - - - -
04/02:00am 8.9 WNW 17 29 1009.2 - - - - - - - - -
04/01:45am 8.5 NW 17 29 1009.5 - - - - - - - - -
04/01:30am 8.3 NW 15 25 1009.8 - - - - - - - - -
04/01:00am 8.2 NW 16 22 1010.1 - - - - - - - - -
04/12:30am 8.3 NW 19 30 1010.1 - - - - - - - - -
04/12:00am 8.4 WNW 22 32 1010.5 - - - - - - - - -
 
Date/Time
EST
Temp

°C
Wind Pressure Rain
since 9am
mm
Weather Cloud Vis
km
Sea
Height
m
Swell
Dir
 
Speed
knots
Gust
knots
hPa Trend Height
m
Period
s
Dir
03/11:35pm 8.5 WNW 20 32 1011.1 - - - - - - - - -
03/11:30pm 8.4 WNW 20 29 1011.2 - - - - - - - - -
03/11:04pm 8.6 WNW 15 28 1011.4 - - - - - - - - -
03/11:00pm 8.7 WNW 13 25 1011.5 - - - - - - - - -
03/10:33pm 8.1 WNW 15 26 1011.6 - - - - - - - - -
03/10:30pm 8.0 WNW 16 26 1011.8 - - - - - - - - -
03/10:25pm 8.2 WNW 15 26 1011.9 - - - - - - - - -
03/10:00pm 7.9 WNW 16 24 1012.1 - - - - - - - - -
03/09:30pm 8.2 WNW 18 31 1012.3 - - - - - - - - -
03/09:17pm 8.3 NW 15 26 1012.3 - - - - - - - - -
03/09:00pm 7.8 WNW 16 23 1013.1 - 0.0 - - - - - - -
03/08:30pm 7.8 WNW 17 28 1013.3 - - - - - - - - -
03/08:12pm 7.9 WNW 15 25 1013.5 - - - - - - - - -
03/08:00pm 8.0 WNW 13 21 1013.7 - - - - - - - - -
03/07:30pm 8.0 WNW 15 24 1014.2 - - - - - - - - -
03/07:00pm 8.4 WNW 19 32 1014.3 - - - - - - - - -
03/06:48pm 8.3 WNW 15 28 1014.3 - - - - - - - - -
03/06:30pm 8.2 WNW 8 25 1014.4 - - - - - - - - -
03/06:00pm 8.0 WNW 12 19 1015.2 - - - - - - - - -
03/05:45pm 8.1 WNW 15 26 1014.8 - - - - - - - - -
03/05:30pm 8.0 WNW 11 20 1015.0 - - - - - - - - -
03/05:00pm 7.9 WNW 12 17 1015.1 - - - - - - - - -
03/04:30pm 7.9 NW 11 17 1015.4 - - - - - - - - -
03/04:00pm 7.7 WNW 7 14 1015.6 - - - - - - - - -
03/03:30pm 8.4 NW 8 11 1016.1 - - - - - - - - -
03/03:00pm 9.0 NW 9 12 1016.5 - - - - - - - - -
03/02:30pm 9.1 NW 9 12 1016.9 - 0.0 - - - - - - -
03/02:00pm 8.8 NW 10 14 1017.3 - 0.0 - - - - - - -
03/01:30pm 9.2 NW 9 13 1017.8 - 0.0 - - - - - - -
03/01:00pm 9.0 NW 8 9 1018.4 - 0.0 - - - - - - -
03/12:30pm 8.7 WNW 9 16 1018.7 - 0.0 - - - - - - -
03/12:00pm 7.9 NW 11 16 1019.2 - 0.0 - - - - - - -
03/11:30am 7.7 WNW 9 18 1019.7 - 0.0 - - - - - - -
03/11:00am 7.3 WNW 13 19 1020.2 - 0.0 - - - - - - -
03/10:30am 7.1 WNW 7 17 1020.6 - 0.0 - - - - - - -
03/10:00am 6.7 WNW 11 18 1020.8 - 0.0 - - - - - - -
03/09:30am 6.5 WNW 9 17 1020.8 - 0.0 - - - - - - -
03/09:00am 6.1 WNW 7 14 1021.0 - - - - - - - - -
03/08:30am 5.8 WNW 12 19 1020.8 - - - - - - - - -
03/08:00am 5.5 NW 6 15 1020.8 - - - - - - - - -
03/07:30am 5.4 NW 6 16 1020.8 - - - - - - - - -
03/07:00am 5.4 W 4 15 1020.4 - - - - - - - - -
03/06:30am 5.5 WSW 5 13 1020.4 - - - - - - - - -
03/06:00am 5.6 W 5 14 1020.3 - - - - - - - - -

Other Formats:

Comma delimited format used in spreadsheet applications
http://www.bom.gov.au/fwo/IDT60701/IDT60701.95986.axf

JavaScript Object Notation format (JSON) in row-major order
http://www.bom.gov.au/fwo/IDT60701/IDT60701.95986.json